createdAt,value
2022-08-02T00:04:28.147Z,16.00
2022-08-02T00:09:44.141Z,16.00
2022-08-02T00:13:05.506Z,16.00
2022-08-02T00:18:37.508Z,16.00
2022-08-02T00:21:09.490Z,15.90
2022-08-02T00:24:35.938Z,15.90
2022-08-02T00:30:24.273Z,15.80
2022-08-02T00:32:54.388Z,15.70
2022-08-02T00:35:42.163Z,15.50
2022-08-02T00:38:09.551Z,15.50
2022-08-02T00:40:38.864Z,15.30
2022-08-02T00:43:11.282Z,15.20
2022-08-02T00:48:41.504Z,15.20
2022-08-02T00:51:28.323Z,15.20
2022-08-02T00:54:08.540Z,15.10
2022-08-02T00:56:40.355Z,15.10
2022-08-02T00:59:29.156Z,14.90
2022-08-02T01:02:26.357Z,14.90
2022-08-02T01:05:04.002Z,14.90
2022-08-02T01:07:32.968Z,14.90
2022-08-02T01:13:01.420Z,14.70
2022-08-02T01:15:38.897Z,14.60
2022-08-02T01:18:17.605Z,14.50
2022-08-02T01:20:56.688Z,14.50
2022-08-02T01:23:57.228Z,14.50
2022-08-02T01:26:42.811Z,14.60
2022-08-02T01:29:34.857Z,14.60
2022-08-02T01:35:20.856Z,14.70
2022-08-02T01:38:07.890Z,14.80
2022-08-02T01:40:42.245Z,14.70
2022-08-02T01:43:18.052Z,14.60
2022-08-02T01:45:49.319Z,14.60
2022-08-02T01:48:21.405Z,14.60
2022-08-02T01:51:03.592Z,14.60
2022-08-02T01:53:59.829Z,14.60
2022-08-02T01:59:42.724Z,14.60
2022-08-02T02:05:09.809Z,14.40
2022-08-02T02:10:48.810Z,14.50
2022-08-02T02:13:21.528Z,14.30
2022-08-02T02:16:05.877Z,14.30
2022-08-02T02:18:59.709Z,14.40
2022-08-02T02:21:26.959Z,14.30
2022-08-02T02:26:47.238Z,14.20
2022-08-02T02:29:36.182Z,14.30
2022-08-02T02:32:07.425Z,14.30
2022-08-02T02:34:44.708Z,14.20
2022-08-02T02:37:41.129Z,14.20
2022-08-02T02:40:25.712Z,14.10
2022-08-02T02:43:04.239Z,14.10
2022-08-02T02:48:39.419Z,14.10
2022-08-02T02:51:14.318Z,14.20
2022-08-02T02:56:56.872Z,14.20
2022-08-02T02:59:24.360Z,14.20
2022-08-02T03:01:56.697Z,14.10
2022-08-02T03:04:55.895Z,14.00
2022-08-02T03:07:19.483Z,14.00
2022-08-02T03:09:54.546Z,14.00
2022-08-02T03:12:30.249Z,14.00
2022-08-02T03:15:06.935Z,14.00
2022-08-02T03:17:45.878Z,14.10
2022-08-02T03:20:23.464Z,13.90
2022-08-02T03:22:51.626Z,14.10
2022-08-02T03:25:19.456Z,14.10
2022-08-02T03:27:50.678Z,14.00
2022-08-02T03:30:19.160Z,14.00
2022-08-02T03:32:48.922Z,14.00
2022-08-02T03:35:23.382Z,13.90
2022-08-02T03:37:53.519Z,13.90
2022-08-02T03:40:21.947Z,13.90
2022-08-02T03:42:51.823Z,14.00
2022-08-02T03:45:19.639Z,14.00
2022-08-02T04:32:11.566Z,14.10
2022-08-02T04:41:15.861Z,14.50
2022-08-02T04:48:02.093Z,14.50
2022-08-02T04:50:36.051Z,14.50
2022-08-02T04:53:03.571Z,14.50
2022-08-02T04:55:30.673Z,14.60
2022-08-02T04:58:23.778Z,14.70
2022-08-02T05:00:52.684Z,14.60
2022-08-02T05:03:19.808Z,14.90
2022-08-02T05:05:46.938Z,14.90
2022-08-02T05:08:14.044Z,15.00
2022-08-02T05:10:41.234Z,15.00
2022-08-02T05:13:08.376Z,15.10
2022-08-02T05:15:35.480Z,15.20
2022-08-02T05:18:02.628Z,15.40
2022-08-02T05:20:29.770Z,15.60
2022-08-02T05:22:56.875Z,16.40
2022-08-02T05:25:24.098Z,17.50
2022-08-02T05:27:51.219Z,18.50
2022-08-02T05:30:18.377Z,19.60
2022-08-02T05:32:47.405Z,20.50
2022-08-02T05:35:17.480Z,21.30
2022-08-02T05:37:44.586Z,21.90
2022-08-02T05:40:16.146Z,22.50
2022-08-02T05:42:44.365Z,23.10
2022-08-02T05:45:12.144Z,23.50
2022-08-02T05:47:39.767Z,23.70
2022-08-02T05:50:09.442Z,24.00
2022-08-02T05:53:01.424Z,24.50
2022-08-02T05:55:57.817Z,24.90
2022-08-02T05:58:41.203Z,25.40
2022-08-02T06:01:13.224Z,25.80
2022-08-02T06:03:48.986Z,26.40
2022-08-02T06:06:18.090Z,27.00
2022-08-02T06:08:59.674Z,27.40
2022-08-02T06:11:39.133Z,27.90
2022-08-02T06:14:07.577Z,28.00
2022-08-02T06:16:41.888Z,27.90
2022-08-02T06:19:09.990Z,27.30
2022-08-02T06:22:32.445Z,27.50
2022-08-02T06:24:27.087Z,27.40
2022-08-02T06:26:56.607Z,27.50
2022-08-02T06:29:24.923Z,27.90
2022-08-02T06:31:53.655Z,28.50
2022-08-02T06:34:20.871Z,28.70
2022-08-02T06:37:46.576Z,29.30
2022-08-02T06:40:46.293Z,29.40
2022-08-02T06:43:23.991Z,30.00
2022-08-02T06:45:51.138Z,29.80
2022-08-02T06:48:18.395Z,29.90
2022-08-02T06:50:45.706Z,30.10
2022-08-02T06:53:13.142Z,30.20
2022-08-02T06:55:43.289Z,30.50
2022-08-02T06:58:11.951Z,30.40
2022-08-02T07:00:39.154Z,30.40
2022-08-02T07:03:06.608Z,30.90
2022-08-02T07:05:34.607Z,31.30
2022-08-02T07:08:02.913Z,31.60
2022-08-02T07:10:30.277Z,31.90
2022-08-02T07:12:59.911Z,32.30
2022-08-02T07:15:27.381Z,32.50
2022-08-02T07:17:54.501Z,32.20
2022-08-02T07:20:21.632Z,32.00
2022-08-02T07:22:48.732Z,32.10
2022-08-02T07:25:16.102Z,32.10
2022-08-02T07:27:43.623Z,31.80
2022-08-02T07:30:11.153Z,31.90
2022-08-02T07:32:38.649Z,31.90
2022-08-02T07:35:07.598Z,32.20
2022-08-02T07:37:55.271Z,32.40
2022-08-02T07:40:26.786Z,32.90
2022-08-02T07:43:02.436Z,33.60
2022-08-02T07:45:32.538Z,33.80
2022-08-02T07:47:59.976Z,33.70
2022-08-02T07:50:28.638Z,33.60
2022-08-02T07:52:57.388Z,33.60
2022-08-02T07:55:35.208Z,33.40
2022-08-02T07:58:07.279Z,33.50
2022-08-02T08:00:39.478Z,33.00
2022-08-02T08:03:06.600Z,32.40
2022-08-02T08:05:33.721Z,32.30
2022-08-02T08:08:00.916Z,32.10
2022-08-02T08:10:28.137Z,31.80
2022-08-02T08:12:55.470Z,32.00
2022-08-02T08:15:22.694Z,32.00
2022-08-02T08:17:49.876Z,31.70
2022-08-02T08:20:16.965Z,31.90
2022-08-02T08:22:44.301Z,31.70
2022-08-02T08:25:11.453Z,31.30
2022-08-02T08:27:38.608Z,31.40
2022-08-02T08:30:06.325Z,32.00
2022-08-02T08:32:33.469Z,32.30
2022-08-02T08:35:00.901Z,32.40
2022-08-02T08:37:27.990Z,32.70
2022-08-02T08:39:58.137Z,32.40
2022-08-02T08:42:31.063Z,32.10
2022-08-02T08:44:59.225Z,32.10
2022-08-02T08:47:38.304Z,32.50
2022-08-02T08:50:24.138Z,32.50
2022-08-02T08:53:05.736Z,32.80
2022-08-02T08:55:34.618Z,32.90
2022-08-02T08:58:03.790Z,33.20
2022-08-02T09:00:32.437Z,33.10
2022-08-02T09:03:01.882Z,32.50
2022-08-02T09:05:28.951Z,32.40
2022-08-02T09:07:56.052Z,32.30
2022-08-02T09:10:48.562Z,32.20
2022-08-02T09:13:43.560Z,31.70
2022-08-02T09:16:12.791Z,30.80
2022-08-02T09:18:44.884Z,29.70
2022-08-02T09:21:13.782Z,28.60
2022-08-02T09:23:42.593Z,28.20
2022-08-02T09:26:12.122Z,28.70
2022-08-02T09:28:44.000Z,30.00
2022-08-02T09:31:15.213Z,30.80
2022-08-02T09:33:44.769Z,31.90
2022-08-02T09:36:16.441Z,32.80
2022-08-02T09:39:14.244Z,33.30
2022-08-02T09:41:44.417Z,34.10
2022-08-02T09:44:17.039Z,34.10
2022-08-02T09:46:45.715Z,34.30
2022-08-02T09:49:14.986Z,34.50
2022-08-02T09:51:54.464Z,34.80
2022-08-02T09:54:25.411Z,34.50
2022-08-02T09:56:55.433Z,33.90
2022-08-02T09:59:27.194Z,32.30
2022-08-02T10:02:01.799Z,31.30
2022-08-02T10:04:34.410Z,30.70
2022-08-02T10:07:21.588Z,30.20
2022-08-02T10:09:50.462Z,30.70
2022-08-02T10:12:17.919Z,30.70
2022-08-02T10:14:46.171Z,31.00
2022-08-02T10:17:13.733Z,31.50
2022-08-02T10:20:03.381Z,31.30
2022-08-02T10:22:28.402Z,30.40
2022-08-02T10:24:55.698Z,29.90
2022-08-02T10:27:25.952Z,29.00
2022-08-02T10:29:57.960Z,28.30
2022-08-02T10:32:33.453Z,28.00
2022-08-02T10:35:25.352Z,27.80
2022-08-02T10:37:56.381Z,28.60
2022-08-02T10:40:24.034Z,29.70
2022-08-02T10:42:53.601Z,30.80
2022-08-02T10:45:22.355Z,31.10
2022-08-02T10:48:09.729Z,31.50
2022-08-02T10:50:48.808Z,31.10
2022-08-02T10:53:32.898Z,30.90
2022-08-02T10:56:04.739Z,29.80
2022-08-02T10:58:34.290Z,30.10
2022-08-02T11:01:38.880Z,30.70
2022-08-02T11:04:10.527Z,31.00
2022-08-02T11:07:17.525Z,30.90
2022-08-02T11:09:46.257Z,30.40
2022-08-02T11:12:15.980Z,30.00
2022-08-02T11:14:47.088Z,29.40
2022-08-02T11:17:16.574Z,29.10
2022-08-02T11:20:08.582Z,29.30
2022-08-02T11:22:36.205Z,29.80
2022-08-02T11:26:02.839Z,30.40
2022-08-02T11:28:26.557Z,29.70
2022-08-02T11:30:58.229Z,29.20
2022-08-02T11:33:34.281Z,29.30
2022-08-02T11:36:03.954Z,29.30
2022-08-02T11:38:31.258Z,29.80
2022-08-02T11:40:58.447Z,30.60
2022-08-02T11:43:31.044Z,31.30
2022-08-02T11:46:02.216Z,31.90
2022-08-02T11:48:38.607Z,32.40
2022-08-02T11:51:11.265Z,32.20
2022-08-02T11:53:43.858Z,32.30
2022-08-02T11:56:11.410Z,32.10
2022-08-02T11:58:39.184Z,31.90
2022-08-02T12:01:09.118Z,32.20
2022-08-02T12:03:40.032Z,32.30
2022-08-02T12:06:16.281Z,32.60
2022-08-02T12:08:54.650Z,32.70
2022-08-02T12:11:22.228Z,33.30
2022-08-02T12:13:56.455Z,33.30
2022-08-02T12:16:43.704Z,33.60
2022-08-02T12:19:19.968Z,34.00
2022-08-02T12:21:47.802Z,34.50
2022-08-02T12:24:27.253Z,34.10
2022-08-02T12:26:54.751Z,33.90
2022-08-02T12:29:58.161Z,33.70
2022-08-02T12:32:25.230Z,32.80
2022-08-02T12:35:25.949Z,31.90
2022-08-02T12:37:54.300Z,32.20
2022-08-02T12:40:26.228Z,32.50
2022-08-02T12:43:02.351Z,33.20
2022-08-02T12:45:41.188Z,33.70
2022-08-02T12:48:10.010Z,33.60
2022-08-02T12:50:38.113Z,33.20
2022-08-02T12:53:07.284Z,33.50
2022-08-02T12:55:59.841Z,33.00
2022-08-02T12:58:23.607Z,33.20
2022-08-02T13:01:04.404Z,33.20
2022-08-02T13:04:12.278Z,32.50
2022-08-02T13:09:17.529Z,31.50
2022-08-02T13:11:45.009Z,32.70
2022-08-02T13:14:14.043Z,32.40
2022-08-02T13:16:43.029Z,32.80
2022-08-02T13:19:10.503Z,33.50
2022-08-02T13:21:41.106Z,33.90
2022-08-02T13:24:40.547Z,34.40
2022-08-02T13:27:12.037Z,34.10
2022-08-02T13:29:39.447Z,34.30
2022-08-02T13:32:06.719Z,34.70
2022-08-02T13:34:33.882Z,34.40
2022-08-02T13:37:01.037Z,34.70
2022-08-02T13:39:28.209Z,34.70
2022-08-02T13:41:55.470Z,34.70
2022-08-02T13:44:23.227Z,34.90
2022-08-02T13:46:50.312Z,33.40
2022-08-02T13:49:19.774Z,33.60
2022-08-02T13:51:48.340Z,33.90
2022-08-02T13:54:18.627Z,33.60
2022-08-02T13:56:45.877Z,33.90
2022-08-02T13:59:55.131Z,34.40
2022-08-02T14:02:00.583Z,34.70
2022-08-02T14:04:29.907Z,34.40
2022-08-02T14:06:58.934Z,34.30
2022-08-02T14:09:26.984Z,34.60
2022-08-02T14:11:54.346Z,34.70
2022-08-02T14:14:21.470Z,35.10
2022-08-02T14:16:48.565Z,35.80
2022-08-02T14:19:17.355Z,36.30
2022-08-02T14:21:46.772Z,36.40
2022-08-02T14:24:19.955Z,36.40
2022-08-02T14:26:48.214Z,36.10
2022-08-02T14:29:16.042Z,35.70
2022-08-02T14:31:44.641Z,35.80
2022-08-02T14:34:13.519Z,35.60
2022-08-02T14:36:40.756Z,35.40
2022-08-02T14:39:08.145Z,35.70
2022-08-02T14:41:59.801Z,35.70
2022-08-02T14:44:24.303Z,36.00
2022-08-02T14:46:52.829Z,35.60
2022-08-02T14:49:25.665Z,35.70
2022-08-02T14:51:57.409Z,35.30
2022-08-02T14:54:31.679Z,34.60
2022-08-02T14:57:00.625Z,34.30
2022-08-02T14:59:28.287Z,34.10
2022-08-02T15:01:56.214Z,34.00
2022-08-02T15:04:23.529Z,34.40
2022-08-02T15:06:50.741Z,34.60
2022-08-02T15:09:18.353Z,34.70
2022-08-02T15:11:47.627Z,34.00
2022-08-02T15:14:21.767Z,34.10
2022-08-02T15:16:57.147Z,34.10
2022-08-02T15:19:55.966Z,34.20
2022-08-02T15:22:19.016Z,34.30
2022-08-02T15:24:48.056Z,33.50
2022-08-02T15:27:16.197Z,33.00
2022-08-02T15:29:44.704Z,32.80
2022-08-02T15:32:13.202Z,33.00
2022-08-02T15:34:41.076Z,32.70
2022-08-02T15:37:08.273Z,32.80
2022-08-02T15:39:35.577Z,33.20
2022-08-02T15:42:03.466Z,33.70
2022-08-02T15:44:30.593Z,33.50
2022-08-02T15:46:57.874Z,33.20
2022-08-02T15:49:25.776Z,33.20
2022-08-02T15:51:54.277Z,33.60
2022-08-02T15:54:21.671Z,33.30
2022-08-02T15:56:49.110Z,33.00
2022-08-02T15:59:16.281Z,33.10
2022-08-02T16:01:47.196Z,32.70
2022-08-02T16:04:15.993Z,32.60
2022-08-02T16:06:43.628Z,31.90
2022-08-02T16:09:11.029Z,31.30
2022-08-02T16:11:38.639Z,31.40
2022-08-02T16:14:06.056Z,31.40
2022-08-02T16:16:36.002Z,31.90
2022-08-02T16:19:47.328Z,32.50
2022-08-02T16:21:53.001Z,32.80
2022-08-02T16:24:20.899Z,32.90
2022-08-02T16:26:48.230Z,33.20
2022-08-02T16:29:19.190Z,33.20
2022-08-02T16:31:48.169Z,33.20
2022-08-02T16:34:16.011Z,33.30
2022-08-02T16:36:43.149Z,33.30
2022-08-02T16:39:10.241Z,33.20
2022-08-02T16:41:50.627Z,33.00
2022-08-02T16:44:29.237Z,32.80
2022-08-02T16:47:00.891Z,32.60
2022-08-02T16:50:04.865Z,32.40
2022-08-02T16:52:19.148Z,32.30
2022-08-02T16:54:49.599Z,32.20
2022-08-02T16:57:20.858Z,32.20
2022-08-02T16:59:57.940Z,32.50
2022-08-02T17:02:26.554Z,33.10
2022-08-02T17:04:55.111Z,32.90
2022-08-02T17:08:06.542Z,32.40
2022-08-02T17:10:09.873Z,31.70
2022-08-02T17:12:37.922Z,30.90
2022-08-02T17:16:01.694Z,30.30
2022-08-02T17:17:53.998Z,29.70
2022-08-02T17:20:21.285Z,29.20
2022-08-02T17:22:51.980Z,28.80
2022-08-02T17:25:19.791Z,28.50
2022-08-02T17:27:47.290Z,28.20
2022-08-02T17:30:26.754Z,27.90
2022-08-02T17:33:10.964Z,27.60
2022-08-02T17:35:43.888Z,27.30
2022-08-02T17:38:27.534Z,27.20
2022-08-02T17:40:55.762Z,27.00
2022-08-02T17:43:29.119Z,27.00
2022-08-02T17:45:59.924Z,26.80
2022-08-02T17:48:55.122Z,26.70
2022-08-02T17:52:15.690Z,26.70
2022-08-02T17:54:10.454Z,26.60
2022-08-02T17:56:38.220Z,26.40
2022-08-02T17:59:20.116Z,26.40
2022-08-02T18:01:53.280Z,26.30
2022-08-02T18:04:26.848Z,26.10
2022-08-02T18:06:58.368Z,26.00
2022-08-02T18:09:26.524Z,25.80
2022-08-02T18:11:54.169Z,25.70
2022-08-02T18:14:21.218Z,25.60
2022-08-02T18:16:51.745Z,25.40
2022-08-02T18:19:19.958Z,25.30
2022-08-02T18:21:48.806Z,25.10
2022-08-02T18:24:16.196Z,24.90
2022-08-02T18:26:43.664Z,24.70
2022-08-02T18:29:12.252Z,24.60
2022-08-02T18:31:42.859Z,24.50
2022-08-02T18:34:24.016Z,24.40
2022-08-02T18:36:51.802Z,24.30
2022-08-02T18:39:18.986Z,24.00
2022-08-02T18:41:47.870Z,23.80
2022-08-02T18:44:16.611Z,23.60
2022-08-02T18:46:44.287Z,23.40
2022-08-02T18:49:13.399Z,23.20
2022-08-02T18:51:43.787Z,23.00
2022-08-02T18:54:11.062Z,22.90
2022-08-02T18:56:38.912Z,22.70
2022-08-02T18:59:07.453Z,22.50
2022-08-02T19:01:42.393Z,22.30
2022-08-02T19:04:15.877Z,22.20
2022-08-02T19:06:55.561Z,22.10
2022-08-02T19:09:22.788Z,21.90
2022-08-02T19:11:50.168Z,21.80
2022-08-02T19:14:27.014Z,21.70
2022-08-02T19:16:57.026Z,21.70
2022-08-02T19:19:29.459Z,21.50
2022-08-02T19:22:18.453Z,21.30
2022-08-02T19:27:34.244Z,21.00
2022-08-02T19:30:04.572Z,20.80
2022-08-02T19:35:29.467Z,20.60
2022-08-02T19:38:06.526Z,20.60
2022-08-02T19:40:33.608Z,20.50
2022-08-02T19:44:21.834Z,20.50
2022-08-02T19:45:49.693Z,20.40
2022-08-02T19:48:24.232Z,20.30
2022-08-02T19:50:56.221Z,20.20
2022-08-02T19:53:29.012Z,20.10
2022-08-02T19:56:19.400Z,20.00
2022-08-02T19:58:53.795Z,19.90
2022-08-02T20:01:28.174Z,19.80
2022-08-02T20:04:13.725Z,19.70
2022-08-02T20:06:45.486Z,19.60
2022-08-02T20:09:21.386Z,19.50
2022-08-02T20:11:54.074Z,19.40
2022-08-02T20:14:27.655Z,19.40
2022-08-02T20:16:56.863Z,19.30
2022-08-02T20:19:24.353Z,19.20
2022-08-02T20:21:56.860Z,19.20
2022-08-02T20:24:27.694Z,19.10
2022-08-02T20:26:59.330Z,19.00
2022-08-02T20:29:46.263Z,19.00
2022-08-02T20:32:22.464Z,19.00
2022-08-02T20:34:50.298Z,19.00
2022-08-02T20:37:59.497Z,18.90
2022-08-02T20:40:06.043Z,18.90
2022-08-02T20:42:34.395Z,18.80
2022-08-02T20:45:02.080Z,18.70
2022-08-02T20:47:39.298Z,18.70
2022-08-02T20:50:31.388Z,18.70
2022-08-02T20:53:03.957Z,18.60
2022-08-02T20:55:31.968Z,18.60
2022-08-02T20:58:02.224Z,18.50
2022-08-02T21:00:31.799Z,18.50
2022-08-02T21:03:00.576Z,18.40
2022-08-02T21:05:43.609Z,18.40
2022-08-02T21:08:15.495Z,18.40
2022-08-02T21:10:52.331Z,18.40
2022-08-02T21:13:22.868Z,18.30
2022-08-02T21:15:51.731Z,18.30
2022-08-02T21:18:24.297Z,18.20
2022-08-02T21:21:02.642Z,18.20
2022-08-02T21:23:29.755Z,18.20
2022-08-02T21:25:58.103Z,18.20
2022-08-02T21:28:43.430Z,18.20
2022-08-02T21:31:13.513Z,18.20
2022-08-02T21:33:57.587Z,18.10
2022-08-02T21:36:33.018Z,18.20
2022-08-02T21:39:08.830Z,18.30
2022-08-02T21:41:46.678Z,18.40
2022-08-02T21:44:22.309Z,18.50
2022-08-02T21:46:52.014Z,18.50
2022-08-02T21:49:41.134Z,18.50
2022-08-02T21:52:11.185Z,18.50
2022-08-02T21:54:39.856Z,18.50
2022-08-02T21:57:15.543Z,18.50
2022-08-02T21:59:47.612Z,18.50
2022-08-02T22:02:15.711Z,18.50
2022-08-02T22:04:47.395Z,18.50
2022-08-02T22:07:23.924Z,18.40
2022-08-02T22:09:51.963Z,18.40
2022-08-02T22:12:20.344Z,18.40
2022-08-02T22:14:55.498Z,18.30
2022-08-02T22:17:51.383Z,18.30
2022-08-02T22:20:15.362Z,18.20
2022-08-02T22:22:42.656Z,18.10
2022-08-02T22:25:21.369Z,18.10
2022-08-02T22:28:13.354Z,18.10
2022-08-02T22:30:41.266Z,18.00
2022-08-02T22:33:33.389Z,18.00
2022-08-02T22:36:01.815Z,18.00
2022-08-02T22:38:29.184Z,18.00
2022-08-02T22:40:56.414Z,18.00
2022-08-02T22:43:23.671Z,18.00
2022-08-02T22:45:51.319Z,17.90
2022-08-02T22:48:19.461Z,17.90
2022-08-02T22:50:47.573Z,17.80
2022-08-02T22:53:24.626Z,17.70
2022-08-02T22:56:01.666Z,17.70
2022-08-02T22:58:28.636Z,17.70
2022-08-02T22:59:00.377Z,21.20
2022-08-02T22:59:00.754Z,20.70
2022-08-02T23:00:55.659Z,17.60
2022-08-02T23:03:22.644Z,17.60
2022-08-02T23:05:50.179Z,17.60
2022-08-02T23:08:17.297Z,17.60
2022-08-02T23:10:44.382Z,17.60
2022-08-02T23:13:11.465Z,17.60
2022-08-02T23:15:58.407Z,17.60
2022-08-02T23:18:44.075Z,17.60
2022-08-02T23:21:11.251Z,17.60
2022-08-02T23:23:38.252Z,17.60
2022-08-02T23:26:05.328Z,17.50
2022-08-02T23:28:32.392Z,17.50
2022-08-02T23:30:59.473Z,17.50
2022-08-02T23:33:26.495Z,17.50
2022-08-02T23:35:53.503Z,17.50
2022-08-02T23:38:20.494Z,17.50
2022-08-02T23:40:47.543Z,17.50
2022-08-02T23:43:18.275Z,17.40
2022-08-02T23:45:48.220Z,17.30
2022-08-02T23:48:15.313Z,17.20
2022-08-02T23:50:42.436Z,17.10
2022-08-02T23:53:09.469Z,17.10
2022-08-02T23:55:36.506Z,17.00
2022-08-02T23:58:03.531Z,16.90
